Parker, ID (83438)

9:25 PM MST on December 04, 2016 (GMT -0700)
Fremont County Courthouse | | Change Station
Active Advisory: Winter Storm Warning Active Notice: Local Storm Report

Elev 4972 ft 43.97 °N, 111.68 °W | Updated 1 second ago

Overcast
Overcast
34.2 °F
Feels Like 26 °F
N
11.0
Wind Variable Wind from SSW

Today
High -- | Low -- °F
--% Chance of Precip.
Yesterday
High -- | Low -- °F
Precip. -- in
Pressure 29.63 in
Visibility 10.0 miles
Clouds Overcast 1300 ft
Windchill 26 °F
Dew Point 30 °F
Humidity 89%
Rainfall Not available.
Snow Depth Not available.
7:45 AM 4:49 PM
Waxing Crescent, 28% visible
SPECI KRXE 050410Z AUTO 24018G27KT 10SM OVC013 01/M01 A2963 RMK AO2 PK WND 24030/0356 T00111006
Pressure 29.63 in
Visibility 10.0 miles
Clouds Overcast 1300 ft
Windchill 26 °F
Dew Point 30 °F
Humidity 89%
Rainfall Not available.
Snow Depth Not available.
7:45 AM 4:49 PM
Waxing Crescent, 28% visible
SPECI KRXE 050410Z AUTO 24018G27KT 10SM OVC013 01/M01 A2963 RMK AO2 PK WND 24030/0356 T00111006

10-Day Weather Forecast

Almanac

Astronomy

Dec. 04, 2016 Rise Set
Actual Time
Civil Twilight
Nautical Twilight
Astronomical Twilight
Moon
Length of Visible Light
Length of Day
Tomorrow will be .
, % of the Moon is Illuminated

Today's Extremes

State Highs State Lows

Community

WunderPhotos

Upload Photos

1,955,759 photos uploaded!

WunderBlog® & News

Nearby

Air Quality

  Air Quality AQ Index Pollutant
Not available.

Snow Depth

Station Depth Elevation

Earthquake Activity

City Distance Mag. Time & Date
Minimum magnitude displayed is 2.5.

Coastal Water Temperatures

Place Temperature

Stations

Nearby Weather Stations

Station Location Temp. Windchill Dew Point Humidity Wind Precip. Elev Updated Type
                   

Watches & Warnings

Winter Storm Warning
Issued: 5:32 PM MST Dec. 4, 2016 – National Weather Service

... Winter Storm Warning remains in effect until 11 am MST
Monday...

* impacts... heavy snow will produce difficult driving
conditions. Areas of blowing snow may significantly reduce
visibilities on mountain passes and roadways.

* Timing... snow and areas of blowing snow will continue this
evening and overnight. Expect conditions to improve Monday
morning.

* Snow accumulations... 5 to 10 inches. Areas in the Big Hole
range and along the Wyoming border north of Driggs could see
accumulations over one foot.

* Locations... Island Park... Driggs... Soda Springs... Lava Hot
Springs... Fish Creek Summit... Pine Creek Pass.

Precautionary/preparedness actions...

A Winter Storm Warning means significant amounts of snow are
expected or occurring. Strong winds and reduced visibility in
blowing snow are also possible. This will make travel very
hazardous or impossible. If you must travel... keep an extra
flashlight... food and water in your vehicle in case of an
emergency.